Wetterdaten: Woche 02.09.02 - 08.09.02 (KW36)
Datum Zeit Temperatur Luftfeuchte Luftdruck Regenmenge Wind Richtung Taupunkt Windchill
02.09.2002 00:00 15.1 C 74 % 1024.2 hPa 0.0 l/m 5.4 km/h (1 Bft) O 10.4 C 15.1 C
02.09.2002 01:00 14.9 C 75 % 1024.2 hPa 0.0 l/m 5.0 km/h (1 Bft) O-SO 10.4 C 14.9 C
02.09.2002 02:00 14.9 C 75 % 1023.2 hPa 0.0 l/m 5.1 km/h (1 Bft) O-NO 10.4 C 14.9 C
02.09.2002 03:00 14.8 C 75 % 1023.2 hPa 0.0 l/m 13.0 km/h (3 Bft) O-NO 10.4 C 14.8 C
02.09.2002 04:00 14.6 C 76 % 1023.2 hPa 0.0 l/m 3.2 km/h (1 Bft) O-SO 10.5 C 14.6 C
02.09.2002 05:00 14.4 C 78 % 1023.2 hPa 0.0 l/m 2.4 km/h (1 Bft) NO 10.6 C 14.4 C
02.09.2002 06:00 14.3 C 79 % 1023.2 hPa 0.0 l/m 0.8 km/h (0 Bft) O 10.7 C 14.3 C
02.09.2002 07:00 14.3 C 80 % 1023.2 hPa 0.0 l/m 0.9 km/h (0 Bft) O 10.9 C 14.3 C
02.09.2002 08:00 14.3 C 81 % 1023.2 hPa 0.0 l/m 1.6 km/h (1 Bft) NO 11.2 C 14.3 C
02.09.2002 09:00 14.7 C 81 % 1023.2 hPa 0.0 l/m 0.4 km/h (0 Bft) N-NO 11.5 C 14.7 C
02.09.2002 10:00 15.4 C 78 % 1023.4 hPa 0.0 l/m 0.8 km/h (0 Bft) NO 11.7 C 15.4 C
02.09.2002 11:00 15.8 C 77 % 1024.2 hPa 0.0 l/m 0.8 km/h (0 Bft) NO 11.8 C 15.8 C
02.09.2002 12:00 16.4 C 75 % 1024.1 hPa 0.0 l/m 0.6 km/h (0 Bft) O 12.0 C 16.4 C
02.09.2002 13:00 17.0 C 73 % 1023.7 hPa 0.0 l/m 0.9 km/h (0 Bft) N-NO 12.0 C 17.0 C
02.09.2002 14:00 17.0 C 73 % 1023.3 hPa 0.0 l/m 0.3 km/h (0 Bft) N-NO 12.2 C 17.0 C
02.09.2002 15:00 16.9 C 76 % 1023.2 hPa 0.0 l/m 1.4 km/h (1 Bft) O 12.6 C 16.9 C
02.09.2002 16:00 16.9 C 76 % 1023.2 hPa 0.0 l/m 0.2 km/h (0 Bft) NO 12.7 C 16.9 C
02.09.2002 17:00 16.9 C 76 % 1023.0 hPa 0.0 l/m 0.5 km/h (0 Bft) NO 12.6 C 16.9 C
02.09.2002 18:00 16.7 C 77 % 1022.2 hPa 0.0 l/m 0.8 km/h (0 Bft) O-NO 12.5 C 16.7 C
02.09.2002 19:00 16.3 C 80 % 1022.2 hPa 0.0 l/m 0.2 km/h (0 Bft) O 12.9 C 16.3 C
02.09.2002 20:00 16.0 C 84 % 1022.2 hPa 0.0 l/m 0.0 km/h (0 Bft) N 13.3 C 16.0 C
02.09.2002 21:00 15.6 C 87 % 1022.2 hPa 0.0 l/m 0.9 km/h (0 Bft) O 13.5 C 15.6 C
02.09.2002 22:00 15.5 C 88 % 1022.2 hPa 0.0 l/m 0.0 km/h (0 Bft) N 13.5 C 15.5 C
02.09.2002 23:00 15.3 C 89 % 1021.4 hPa 0.0 l/m 0.0 km/h (0 Bft) N 13.5 C 15.3 C
03.09.2002 00:00 15.2 C 90 % 1021.1 hPa 0.0 l/m 0.5 km/h (0 Bft) O 13.6 C 15.2 C
03.09.2002 01:00 15.1 C 92 % 1020.2 hPa 0.0 l/m 0.0 km/h (0 Bft) N 13.7 C 15.1 C
03.09.2002 02:00 15.0 C 93 % 1020.1 hPa 0.0 l/m 0.0 km/h (0 Bft) N 13.9 C 15.0 C
03.09.2002 03:00 15.1 C 93 % 1019.1 hPa 0.0 l/m 0.0 km/h (0 Bft) N 14.0 C 15.1 C
03.09.2002 04:00 15.2 C 93 % 1018.5 hPa 0.0 l/m 0.0 km/h (0 Bft) N 14.1 C 15.2 C
03.09.2002 05:00 15.1 C 91 % 1018.0 hPa 0.0 l/m 0.0 km/h (0 Bft) N 13.7 C 15.1 C
03.09.2002 06:00 14.9 C 80 % 1018.0 hPa 0.0 l/m 0.4 km/h (0 Bft) O 11.4 C 14.9 C
03.09.2002 07:00 14.3 C 80 % 1017.8 hPa 0.0 l/m 0.7 km/h (0 Bft) O-NO 11.0 C 14.3 C
03.09.2002 08:00 14.0 C 80 % 1017.7 hPa 0.0 l/m 1.9 km/h (1 Bft) O 10.6 C 14.0 C
03.09.2002 09:00 13.7 C 82 % 1018.0 hPa 0.0 l/m 2.1 km/h (1 Bft) SO 10.7 C 13.7 C
03.09.2002 10:00 13.7 C 85 % 1018.0 hPa 0.0 l/m 3.4 km/h (1 Bft) O-SO 11.3 C 13.7 C
03.09.2002 11:00 14.1 C 81 % 1017.7 hPa 0.0 l/m 7.8 km/h (2 Bft) O-SO 10.9 C 14.1 C
03.09.2002 12:00 14.0 C 86 % 1017.3 hPa 0.6 l/m 1.0 km/h (0 Bft) O-SO 11.6 C 14.0 C
03.09.2002 13:00 13.9 C 93 % 1017.0 hPa 0.6 l/m 0.8 km/h (0 Bft) O-SO 12.8 C 13.9 C
03.09.2002 14:00 13.8 C 97 % 1017.0 hPa 2.1 l/m 0.0 km/h (0 Bft) N 13.3 C 13.8 C
03.09.2002 15:00 14.4 C 98 % 1016.7 hPa 1.2 l/m 3.3 km/h (1 Bft) O-SO 14.1 C 14.4 C
03.09.2002 16:00 15.3 C 98 % 1015.9 hPa 0.0 l/m 2.7 km/h (1 Bft) O-SO 15.0 C 15.3 C
03.09.2002 17:00 15.8 C 97 % 1015.4 hPa 0.0 l/m 0.3 km/h (0 Bft) O-NO 15.4 C 15.8 C
03.09.2002 18:00 16.0 C 95 % 1014.9 hPa 0.0 l/m 0.0 km/h (0 Bft) N 15.1 C 16.0 C
03.09.2002 19:00 15.8 C 95 % 1014.9 hPa 0.0 l/m 0.0 km/h (0 Bft) N 15.0 C 15.8 C
03.09.2002 20:00 15.1 C 99 % 1014.9 hPa 0.0 l/m 0.2 km/h (0 Bft) O-NO 15.0 C 15.1 C
03.09.2002 21:00 14.9 C 100 % 1014.9 hPa 0.0 l/m 0.1 km/h (0 Bft) N 14.9 C 14.9 C
03.09.2002 22:00 14.8 C 100 % 1015.3 hPa 0.0 l/m 0.0 km/h (0 Bft) N 14.8 C 14.8 C
03.09.2002 23:00 14.7 C 100 % 1015.3 hPa 0.3 l/m 1.2 km/h (1 Bft) O-SO 14.7 C 14.7 C
04.09.2002 00:00 14.2 C 100 % 1014.9 hPa 0.0 l/m 1.9 km/h (1 Bft) O-SO 14.2 C 14.2 C
04.09.2002 01:00 13.9 C 100 % 1014.9 hPa 0.0 l/m 4.6 km/h (1 Bft) O-SO 13.9 C 13.9 C
04.09.2002 02:00 13.8 C 100 % 1014.9 hPa 0.0 l/m 0.2 km/h (0 Bft) O-SO 13.8 C 13.8 C
04.09.2002 03:00 14.0 C 100 % 1014.9 hPa 0.0 l/m 1.4 km/h (1 Bft) O-SO 14.0 C 14.0 C
04.09.2002 04:00 14.1 C 100 % 1014.9 hPa 0.0 l/m 0.0 km/h (0 Bft) N 14.1 C 14.1 C
04.09.2002 05:00 14.1 C 100 % 1014.9 hPa 0.0 l/m 0.0 km/h (0 Bft) N 14.1 C 14.1 C
04.09.2002 06:00 14.0 C 100 % 1014.9 hPa 0.0 l/m 2.4 km/h (1 Bft) O-SO 14.0 C 14.0 C
04.09.2002 07:00 14.1 C 100 % 1014.9 hPa 0.3 l/m 2.4 km/h (1 Bft) O-SO 14.1 C 14.1 C
04.09.2002 08:00 14.2 C 100 % 1015.1 hPa 0.3 l/m 0.0 km/h (0 Bft) N 14.2 C 14.2 C
04.09.2002 09:00 14.4 C 100 % 1015.2 hPa 0.0 l/m 0.0 km/h (0 Bft) N 14.4 C 14.4 C
04.09.2002 10:00 15.5 C 96 % 1015.7 hPa 0.0 l/m 0.5 km/h (0 Bft) S 14.8 C 15.5 C
04.09.2002 11:00 16.4 C 89 % 1015.5 hPa 0.0 l/m 1.5 km/h (1 Bft) SO 14.6 C 16.4 C
04.09.2002 12:00 16.9 C 86 % 1014.9 hPa 0.0 l/m 4.1 km/h (1 Bft) SO 14.5 C 16.9 C
04.09.2002 13:00 17.8 C 81 % 1014.9 hPa 0.0 l/m 4.7 km/h (1 Bft) SO 14.4 C 17.8 C
04.09.2002 14:00 19.4 C 74 % 1014.4 hPa 0.0 l/m 5.6 km/h (1 Bft) O-SO 14.7 C 19.4 C
04.09.2002 15:00 20.5 C 70 % 1013.9 hPa 0.0 l/m 6.1 km/h (2 Bft) O-SO 14.8 C 20.5 C
04.09.2002 16:00 20.7 C 68 % 1013.9 hPa 0.0 l/m 2.7 km/h (1 Bft) SO 14.5 C 20.7 C
04.09.2002 17:00 21.0 C 68 % 1013.9 hPa 0.0 l/m 4.1 km/h (1 Bft) O-SO 14.8 C 21.0 C
04.09.2002 18:00 19.8 C 72 % 1013.9 hPa 0.0 l/m 3.0 km/h (1 Bft) O-SO 14.5 C 19.8 C
04.09.2002 19:00 18.5 C 80 % 1013.9 hPa 0.0 l/m 0.0 km/h (0 Bft) O-SO 15.1 C 18.5 C
04.09.2002 20:00 17.1 C 91 % 1014.4 hPa 3.0 l/m 5.1 km/h (1 Bft) O-SO 15.6 C 17.1 C
04.09.2002 21:00 15.1 C 98 % 1014.9 hPa 0.0 l/m 4.3 km/h (1 Bft) O-SO 14.7 C 15.1 C
04.09.2002 22:00 14.7 C 99 % 1014.9 hPa 0.0 l/m 3.9 km/h (1 Bft) O-SO 14.5 C 14.7 C
04.09.2002 23:00 14.8 C 100 % 1015.2 hPa 0.0 l/m 0.7 km/h (0 Bft) O-SO 14.8 C 14.8 C
05.09.2002 00:00 14.7 C 100 % 1015.9 hPa 0.9 l/m 0.5 km/h (0 Bft) O-SO 14.7 C 14.7 C
05.09.2002 01:00 14.4 C 100 % 1015.9 hPa 0.0 l/m 1.8 km/h (1 Bft) O-SO 14.4 C 14.4 C
05.09.2002 02:00 14.3 C 100 % 1015.9 hPa 0.3 l/m 2.5 km/h (1 Bft) O-SO 14.3 C 14.3 C
05.09.2002 03:00 14.1 C 100 % 1015.9 hPa 0.0 l/m 0.7 km/h (0 Bft) O-SO 14.1 C 14.1 C
05.09.2002 04:00 13.6 C 100 % 1015.9 hPa 0.0 l/m 0.3 km/h (0 Bft) N 13.6 C 13.6 C
05.09.2002 05:00 13.6 C 100 % 1015.7 hPa 0.0 l/m 0.2 km/h (0 Bft) O-SO 13.6 C 13.6 C
05.09.2002 06:00 13.7 C 100 % 1015.6 hPa 0.0 l/m 0.5 km/h (0 Bft) O-SO 13.7 C 13.7 C
05.09.2002 07:00 14.0 C 100 % 1015.5 hPa 0.0 l/m 0.0 km/h (0 Bft) N 14.0 C 14.0 C
05.09.2002 08:00 14.7 C 100 % 1015.3 hPa 0.0 l/m 0.0 km/h (0 Bft) N 14.7 C 14.7 C
05.09.2002 09:00 15.5 C 96 % 1015.6 hPa 0.0 l/m 0.1 km/h (0 Bft) NO 14.9 C 15.5 C
05.09.2002 10:00 16.3 C 87 % 1015.9 hPa 0.0 l/m 0.8 km/h (0 Bft) O 14.1 C 16.3 C
05.09.2002 11:00 17.2 C 82 % 1015.8 hPa 0.0 l/m 1.8 km/h (1 Bft) O-SO 14.0 C 17.2 C
05.09.2002 12:00 19.2 C 75 % 1014.9 hPa 0.0 l/m 1.2 km/h (1 Bft) O-SO 14.7 C 19.2 C
05.09.2002 13:00 20.9 C 65 % 1013.9 hPa 0.0 l/m 3.8 km/h (1 Bft) O-SO 14.0 C 20.9 C
05.09.2002 14:00 22.8 C 54 % 1013.9 hPa 0.0 l/m 3.9 km/h (1 Bft) O-SO 12.9 C 22.8 C
05.09.2002 15:00 23.6 C 47 % 1013.6 hPa 0.0 l/m 3.4 km/h (1 Bft) NW 11.6 C 23.6 C
05.09.2002 16:00 22.5 C 54 % 1013.5 hPa 0.0 l/m 6.1 km/h (2 Bft) N-NW 12.7 C 22.5 C
05.09.2002 17:00 21.6 C 58 % 1013.9 hPa 0.0 l/m 2.9 km/h (1 Bft) N 13.0 C 21.6 C
05.09.2002 18:00 21.0 C 60 % 1013.9 hPa 0.0 l/m 0.6 km/h (0 Bft) NO 12.9 C 21.0 C
05.09.2002 19:00 18.9 C 66 % 1013.9 hPa 0.0 l/m 0.7 km/h (0 Bft) N-NO 12.5 C 18.9 C
05.09.2002 20:00 16.7 C 79 % 1014.3 hPa 0.0 l/m 1.2 km/h (1 Bft) O 12.9 C 16.7 C
05.09.2002 21:00 16.2 C 85 % 1015.3 hPa 0.0 l/m 0.5 km/h (0 Bft) O 13.7 C 16.2 C
05.09.2002 22:00 15.4 C 91 % 1015.9 hPa 0.0 l/m 2.0 km/h (1 Bft) O 13.9 C 15.4 C
05.09.2002 23:00 14.8 C 94 % 1015.9 hPa 0.0 l/m 0.3 km/h (0 Bft) W-NW 13.8 C 14.8 C
06.09.2002 00:00 14.6 C 94 % 1015.9 hPa 0.0 l/m 0.5 km/h (0 Bft) O 13.7 C 14.6 C
06.09.2002 01:00 13.3 C 98 % 1016.4 hPa 0.0 l/m 2.5 km/h (1 Bft) O-SO 13.0 C 13.3 C
06.09.2002 02:00 12.4 C 99 % 1016.6 hPa 0.0 l/m 1.3 km/h (1 Bft) O-SO 12.3 C 12.4 C
06.09.2002 03:00 12.2 C 100 % 1016.9 hPa 0.0 l/m 0.2 km/h (0 Bft) O-SO 12.2 C 12.2 C
06.09.2002 04:00 11.5 C 100 % 1017.0 hPa 0.0 l/m 0.0 km/h (0 Bft) N 11.5 C 11.5 C
06.09.2002 05:00 11.5 C 100 % 1017.0 hPa 0.0 l/m 0.0 km/h (0 Bft) N 11.5 C 11.5 C
06.09.2002 06:00 10.9 C 100 % 1017.0 hPa 0.0 l/m 0.0 km/h (0 Bft) N 10.9 C 10.9 C
06.09.2002 07:00 10.8 C 100 % 1017.4 hPa 0.0 l/m 1.2 km/h (1 Bft) O 10.7 C 10.8 C
06.09.2002 08:00 12.5 C 98 % 1018.0 hPa 0.0 l/m 0.0 km/h (0 Bft) N 12.1 C 12.5 C
06.09.2002 09:00 13.8 C 90 % 1018.0 hPa 0.0 l/m 0.8 km/h (0 Bft) W-NW 12.2 C 13.8 C
06.09.2002 10:00 15.9 C 81 % 1018.0 hPa 0.0 l/m 0.7 km/h (0 Bft) NW 12.6 C 15.9 C
06.09.2002 11:00 18.2 C 66 % 1018.0 hPa 0.0 l/m 0.7 km/h (0 Bft) W-NW 11.6 C 18.2 C
06.09.2002 12:00 19.7 C 62 % 1017.7 hPa 0.0 l/m 1.1 km/h (1 Bft) W 12.2 C 19.7 C
06.09.2002 13:00 21.6 C 55 % 1017.0 hPa 0.0 l/m 2.4 km/h (1 Bft) W-NW 12.1 C 21.6 C
06.09.2002 14:00 23.0 C 49 % 1017.0 hPa 0.0 l/m 3.2 km/h (1 Bft) NW 11.8 C 23.0 C
06.09.2002 15:00 22.2 C 55 % 1017.0 hPa 0.0 l/m 7.9 km/h (2 Bft) NW 12.7 C 22.2 C
06.09.2002 16:00 22.8 C 52 % 1016.2 hPa 0.0 l/m 5.5 km/h (1 Bft) NW 12.5 C 22.8 C
06.09.2002 17:00 22.6 C 54 % 1015.9 hPa 0.0 l/m 1.7 km/h (1 Bft) W-NW 12.9 C 22.6 C
06.09.2002 18:00 22.0 C 56 % 1015.9 hPa 0.0 l/m 0.7 km/h (0 Bft) NW 12.8 C 22.0 C
06.09.2002 19:00 20.0 C 62 % 1015.9 hPa 0.0 l/m 0.0 km/h (0 Bft) N 12.5 C 20.0 C
06.09.2002 20:00 17.5 C 78 % 1016.8 hPa 0.0 l/m 0.0 km/h (0 Bft) N 13.7 C 17.5 C
06.09.2002 21:00 16.0 C 85 % 1017.0 hPa 0.0 l/m 0.6 km/h (0 Bft) O-SO 13.5 C 16.0 C
06.09.2002 22:00 15.1 C 89 % 1017.5 hPa 0.0 l/m 0.0 km/h (0 Bft) N 13.3 C 15.1 C
06.09.2002 23:00 14.5 C 90 % 1017.7 hPa 0.0 l/m 0.0 km/h (0 Bft) N 12.9 C 14.5 C
07.09.2002 00:00 14.6 C 90 % 1017.0 hPa 0.0 l/m 0.0 km/h (0 Bft) N 13.0 C 14.6 C
07.09.2002 01:00 13.5 C 95 % 1017.0 hPa 0.0 l/m 1.8 km/h (1 Bft) O 12.7 C 13.5 C
07.09.2002 02:00 12.8 C 98 % 1017.0 hPa 0.0 l/m 1.5 km/h (1 Bft) O 12.5 C 12.8 C
07.09.2002 03:00 12.5 C 97 % 1017.0 hPa 0.0 l/m 0.1 km/h (0 Bft) N 12.0 C 12.5 C
07.09.2002 04:00 11.6 C 98 % 1016.1 hPa 0.0 l/m 0.9 km/h (0 Bft) O 11.4 C 11.6 C
07.09.2002 05:00 12.0 C 99 % 1015.9 hPa 0.0 l/m 0.3 km/h (0 Bft) O 11.8 C 12.0 C
07.09.2002 06:00 12.3 C 100 % 1015.9 hPa 0.0 l/m 0.0 km/h (0 Bft) N 12.3 C 12.3 C
07.09.2002 07:00 12.7 C 99 % 1015.9 hPa 0.0 l/m 0.0 km/h (0 Bft) N 12.6 C 12.7 C
07.09.2002 08:00 13.5 C 94 % 1015.8 hPa 0.0 l/m 0.1 km/h (0 Bft) N 12.5 C 13.5 C
07.09.2002 09:00 14.8 C 86 % 1015.4 hPa 0.0 l/m 1.0 km/h (0 Bft) W-NW 12.4 C 14.8 C
07.09.2002 10:00 16.5 C 78 % 1014.9 hPa 0.0 l/m 0.8 km/h (0 Bft) W-NW 12.6 C 16.5 C
07.09.2002 11:00 18.8 C 67 % 1014.7 hPa 0.0 l/m 1.1 km/h (0 Bft) W 12.6 C 18.8 C
07.09.2002 12:00 21.2 C 57 % 1013.9 hPa 0.0 l/m 4.2 km/h (1 Bft) O-SO 12.5 C 21.2 C
07.09.2002 13:00 22.3 C 54 % 1013.5 hPa 0.0 l/m 4.7 km/h (1 Bft) O-SO 12.6 C 22.3 C
07.09.2002 14:00 23.6 C 50 % 1012.8 hPa 0.0 l/m 10.5 km/h (2 Bft) O-SO 12.5 C 23.6 C
07.09.2002 15:00 24.6 C 46 % 1012.4 hPa 0.0 l/m 13.1 km/h (3 Bft) O-SO 12.0 C 24.6 C
07.09.2002 16:00 24.6 C 48 % 1011.8 hPa 0.0 l/m 6.7 km/h (2 Bft) O-SO 12.9 C 24.6 C
07.09.2002 17:00 23.3 C 51 % 1011.8 hPa 0.0 l/m 1.5 km/h (1 Bft) O-SO 12.7 C 23.3 C
07.09.2002 18:00 21.7 C 59 % 1011.8 hPa 0.0 l/m 2.8 km/h (1 Bft) NW 13.4 C 21.7 C
07.09.2002 19:00 20.3 C 68 % 1011.8 hPa 0.0 l/m 0.1 km/h (0 Bft) N 14.1 C 20.3 C
07.09.2002 20:00 18.0 C 80 % 1012.8 hPa 0.0 l/m 0.4 km/h (0 Bft) N-NO 14.6 C 18.0 C
07.09.2002 21:00 17.2 C 85 % 1012.8 hPa 0.0 l/m 0.1 km/h (0 Bft) N 14.7 C 17.2 C
07.09.2002 22:00 16.6 C 89 % 1013.2 hPa 0.0 l/m 0.0 km/h (0 Bft) N 14.8 C 16.6 C
07.09.2002 23:00 16.1 C 89 % 1013.9 hPa 0.0 l/m 0.0 km/h (0 Bft) N 14.3 C 16.1 C
08.09.2002 00:00 15.4 C 95 % 1013.3 hPa 0.6 l/m 0.0 km/h (0 Bft) N 14.5 C 15.4 C
08.09.2002 01:00 14.5 C 98 % 1012.8 hPa 0.0 l/m 0.2 km/h (0 Bft) S-SO 14.2 C 14.5 C
08.09.2002 02:00 13.7 C 99 % 1012.8 hPa 0.0 l/m 0.0 km/h (0 Bft) N 13.6 C 13.7 C
08.09.2002 03:00 13.7 C 100 % 1012.8 hPa 0.0 l/m 0.0 km/h (0 Bft) N 13.7 C 13.7 C
08.09.2002 04:00 13.4 C 100 % 1012.8 hPa 0.0 l/m 0.0 km/h (0 Bft) N 13.4 C 13.4 C
08.09.2002 05:00 13.3 C 100 % 1012.8 hPa 0.0 l/m 0.0 km/h (0 Bft) N 13.3 C 13.3 C
08.09.2002 06:00 13.2 C 100 % 1012.8 hPa 0.0 l/m 0.0 km/h (0 Bft) N 13.2 C 13.2 C
08.09.2002 07:00 13.2 C 100 % 1012.8 hPa 0.0 l/m 0.0 km/h (0 Bft) N 13.2 C 13.2 C
08.09.2002 08:00 13.6 C 99 % 1012.9 hPa 0.0 l/m 0.0 km/h (0 Bft) N 13.5 C 13.6 C
08.09.2002 09:00 14.8 C 97 % 1013.5 hPa 0.0 l/m 0.1 km/h (0 Bft) N 14.3 C 14.8 C
08.09.2002 10:00 16.6 C 86 % 1012.8 hPa 0.0 l/m 0.4 km/h (0 Bft) W 14.3 C 16.6 C
08.09.2002 11:00 18.6 C 76 % 1012.8 hPa 0.0 l/m 1.0 km/h (0 Bft) O-SO 14.2 C 18.6 C
08.09.2002 12:00 21.1 C 63 % 1012.8 hPa 0.0 l/m 1.9 km/h (1 Bft) O-SO 13.8 C 21.1 C
08.09.2002 13:00 23.0 C 54 % 1011.9 hPa 0.0 l/m 1.4 km/h (1 Bft) O-SO 13.0 C 23.0 C
08.09.2002 14:00 24.6 C 46 % 1011.8 hPa 0.0 l/m 3.8 km/h (1 Bft) SO 12.2 C 24.6 C
08.09.2002 15:00 25.8 C 45 % 1011.1 hPa 0.0 l/m 3.5 km/h (1 Bft) O-SO 12.9 C 25.8 C
08.09.2002 16:00 26.1 C 42 % 1010.8 hPa 0.0 l/m 4.5 km/h (1 Bft) O-SO 12.3 C 26.1 C
08.09.2002 17:00 25.6 C 41 % 1010.8 hPa 0.0 l/m 9.0 km/h (2 Bft) O-SO 11.5 C 25.6 C
08.09.2002 18:00 24.2 C 49 % 1010.8 hPa 0.0 l/m 10.6 km/h (2 Bft) O-SO 12.7 C 24.2 C
08.09.2002 19:00 22.2 C 56 % 1010.8 hPa 0.0 l/m 7.5 km/h (2 Bft) O-SO 13.0 C 22.2 C
08.09.2002 20:00 19.0 C 67 % 1011.1 hPa 0.0 l/m 1.9 km/h (1 Bft) O-SO 12.5 C 19.0 C
08.09.2002 21:00 17.2 C 78 % 1011.8 hPa 0.0 l/m 3.7 km/h (1 Bft) O-SO 13.3 C 17.2 C
08.09.2002 22:00 15.6 C 84 % 1011.8 hPa 0.0 l/m 0.3 km/h (0 Bft) O-SO 12.9 C 15.6 C
08.09.2002 23:00 14.5 C 91 % 1011.8 hPa 0.0 l/m 0.3 km/h (0 Bft) O-SO 12.9 C 14.5 C
Min-Datum _ 06.09.02 08.09.02 08.09.02 - 02.09.02 - 02.09.02 06.09.02
_ Min-Zeit 06:55 17:27 16:00 - 04:03 - 00:57 06:55
Minimum _ 10.2 C 38 % 1010.8 hPa - 0.0 km/h (0 Bft) - 10.2 C 10.2 C
Max-Datum _ 08.09.02 03.09.02 02.09.02 04.09.02 02.09.02 - 04.09.02 08.09.02
_ Max-Zeit 16:30 21:04 00:00 20:32 03:42 - 20:32 16:30
Maximum _ 26.5 C 100 % 1024.2 hPa 3.0 l/m 31.6 km/h
O-NO (5 Bft)
- 15.9 C 26.5 C
Durchschnitt _ 16.5 C 83 % 1016.2 hPa #10.2 l/m 1.8 km/h (1 Bft) O-SO 13.1 C 16.5 C

Durchschnitt Minimum Temp.15.9 C
Durchschnitt Maximum Temp.17.1 C
© Kaiko 2002